createdAt,value
2022-09-27T00:04:02.081Z,48.6
2022-09-27T00:09:20.540Z,48.1
2022-09-27T00:14:39.313Z,49
2022-09-27T00:19:57.568Z,48.9
2022-09-27T00:25:15.758Z,49
2022-09-27T00:30:33.955Z,49
2022-09-27T00:35:52.473Z,47.7
2022-09-27T00:41:11.235Z,49
2022-09-27T00:46:29.830Z,48.9
2022-09-27T00:51:47.774Z,47.9
2022-09-27T00:57:06.232Z,48.5
2022-09-27T01:02:25.005Z,49
2022-09-27T01:07:43.499Z,48.3
2022-09-27T01:13:01.963Z,49
2022-09-27T01:18:20.458Z,48.4
2022-09-27T01:23:39.253Z,48.8
2022-09-27T01:28:57.709Z,48.5
2022-09-27T01:34:16.195Z,48.5
2022-09-27T01:39:34.566Z,49.3
2022-09-27T01:44:52.755Z,48.3
2022-09-27T01:50:11.525Z,48.2
2022-09-27T01:55:29.757Z,48.5
2022-09-27T02:00:47.660Z,48.4
2022-09-27T02:06:05.875Z,48.9
2022-09-27T02:11:24.694Z,49
2022-09-27T02:16:42.891Z,48.6
2022-09-27T02:22:01.663Z,48.3
2022-09-27T02:27:20.443Z,48.3
2022-09-27T02:32:38.901Z,48.7
2022-09-27T02:37:57.676Z,48.7
2022-09-27T02:43:16.476Z,49.3
2022-09-27T02:48:34.941Z,49.1
2022-09-27T02:53:53.442Z,48.5
2022-09-27T02:59:11.677Z,48.4
2022-09-27T03:04:30.149Z,49.2
2022-09-27T03:09:48.645Z,49.4
2022-09-27T03:15:07.157Z,48.9
2022-09-27T03:20:25.344Z,49.6
2022-09-27T03:25:43.843Z,48.9
2022-09-27T03:31:02.133Z,48.6
2022-09-27T03:36:20.395Z,49.5
2022-09-27T03:41:38.606Z,49.1
2022-09-27T03:46:57.126Z,48.4
2022-09-27T03:52:15.604Z,49.3
2022-09-27T03:57:34.374Z,48.6
2022-09-27T04:02:53.003Z,48.6
2022-09-27T04:08:11.478Z,48.7
2022-09-27T04:13:29.413Z,49
2022-09-27T04:18:47.919Z,49
2022-09-27T04:24:05.833Z,49.9
2022-09-27T04:29:24.307Z,50.9
2022-09-27T04:34:46.614Z,52.6
2022-09-27T04:40:05.096Z,54.3
2022-09-27T04:45:23.305Z,55
2022-09-27T04:50:41.265Z,53.6
2022-09-27T04:55:59.708Z,53.1
2022-09-27T05:01:18.036Z,51.6
2022-09-27T05:06:36.543Z,50.4
2022-09-27T05:11:54.730Z,50.9
2022-09-27T05:17:13.013Z,50.2
2022-09-27T05:22:31.531Z,51
2022-09-27T05:27:50.271Z,50.1
2022-09-27T05:33:08.480Z,49.6
2022-09-27T05:38:11.372Z,49.8
2022-09-27T05:43:30.112Z,51.4
2022-09-27T05:48:48.890Z,49.8
2022-09-27T05:54:07.674Z,50.4
2022-09-27T05:59:26.423Z,50.2
2022-09-27T06:04:44.913Z,50
2022-09-27T06:10:03.130Z,49.6
2022-09-27T06:15:21.874Z,49.6
2022-09-27T06:20:39.795Z,51.9
2022-09-27T06:25:42.139Z,51.1
2022-09-27T06:31:00.131Z,50.7
2022-09-27T06:36:19.010Z,50.7
2022-09-27T06:41:37.497Z,50.3
2022-09-27T06:46:56.250Z,50.9
2022-09-27T06:51:59.108Z,50.7
2022-09-27T06:57:17.620Z,51.5
2022-09-27T07:02:35.785Z,53.3
2022-09-27T07:07:53.985Z,54.8
2022-09-27T07:13:12.473Z,55.4
2022-09-27T07:18:30.940Z,56.3
2022-09-27T07:23:49.680Z,56.3
2022-09-27T07:29:08.624Z,56
2022-09-27T07:34:26.827Z,56.6
2022-09-27T07:39:45.662Z,57.5
2022-09-27T07:45:09.808Z,58.3
2022-09-27T07:50:28.243Z,58.5
2022-09-27T07:55:46.178Z,58
2022-09-27T08:01:04.959Z,58.1
2022-09-27T08:06:23.241Z,58.6
2022-09-27T08:11:41.729Z,58
2022-09-27T08:17:00.246Z,56.7
2022-09-27T08:22:18.715Z,55.2
2022-09-27T08:27:37.199Z,54.9
2022-09-27T08:32:55.746Z,55.2
2022-09-27T08:38:14.466Z,55.2
2022-09-27T08:43:32.671Z,54.5
2022-09-27T08:48:52.222Z,53.5
2022-09-27T08:54:10.578Z,53.9
2022-09-27T08:59:29.339Z,53.1
2022-09-27T09:04:48.152Z,53.6
2022-09-27T09:10:06.606Z,53.2
2022-09-27T09:15:25.094Z,51.9
2022-09-27T09:20:43.599Z,52.4
2022-09-27T09:26:01.779Z,51.8
2022-09-27T09:31:20.376Z,51.4
2022-09-27T09:36:38.592Z,51.3
2022-09-27T09:41:56.490Z,51.6
2022-09-27T09:47:15.247Z,51.3
2022-09-27T09:52:33.509Z,51.4
2022-09-27T09:57:51.696Z,50.8
2022-09-27T10:03:10.194Z,50.6
2022-09-27T10:08:28.422Z,51.1
2022-09-27T10:13:47.163Z,51.4
2022-09-27T10:19:05.644Z,50.7
2022-09-27T10:24:25.904Z,51.3
2022-09-27T10:29:44.565Z,50.1
2022-09-27T10:35:03.344Z,51
2022-09-27T10:40:22.663Z,50.8
2022-09-27T10:45:41.387Z,50.6
2022-09-27T10:51:00.710Z,50.1
2022-09-27T10:56:19.010Z,50.1
2022-09-27T11:01:37.740Z,50.2
2022-09-27T11:06:56.511Z,50.7
2022-09-27T11:12:15.324Z,51.2
2022-09-27T11:17:33.225Z,51.1
2022-09-27T11:22:51.718Z,50.4
2022-09-27T11:28:09.820Z,51
2022-09-27T11:33:28.001Z,50.4
2022-09-27T11:38:56.392Z,50.3
2022-09-27T11:44:15.178Z,50.4
2022-09-27T11:49:33.656Z,50.4
2022-09-27T11:54:51.864Z,49.6
2022-09-27T12:00:10.397Z,49.9
2022-09-27T12:05:29.138Z,50.5
2022-09-27T12:10:47.620Z,50.1
2022-09-27T12:16:06.120Z,50.1
2022-09-27T12:21:24.658Z,50.7
2022-09-27T12:26:43.425Z,49.6
2022-09-27T12:32:02.240Z,49.5
2022-09-27T12:37:20.769Z,50.9
2022-09-27T12:42:39.259Z,50.6
2022-09-27T12:47:58.183Z,51.2
2022-09-27T12:53:16.947Z,51.2
2022-09-27T12:58:35.430Z,51.3
2022-09-27T13:03:53.671Z,51.1
2022-09-27T13:09:12.431Z,51
2022-09-27T13:14:31.238Z,50.8
2022-09-27T13:19:49.750Z,50.8
2022-09-27T13:25:08.498Z,51.1
2022-09-27T13:30:26.438Z,50.7
2022-09-27T13:35:44.971Z,50.1
2022-09-27T13:41:03.493Z,50.2
2022-09-27T13:46:21.782Z,51
2022-09-27T13:51:39.985Z,51
2022-09-27T13:56:57.898Z,50.6
2022-09-27T14:02:16.232Z,51.3
2022-09-27T14:07:34.152Z,51.6
2022-09-27T14:12:52.620Z,52.3
2022-09-27T14:18:11.375Z,50.5
2022-09-27T14:23:29.602Z,53.2
2022-09-27T14:28:48.071Z,53.2
2022-09-27T14:34:06.559Z,53.3
2022-09-27T14:39:24.776Z,53.4
2022-09-27T14:44:43.524Z,53.5
2022-09-27T14:50:02.325Z,53.3
2022-09-27T14:55:20.824Z,52.9
2022-09-27T15:00:39.279Z,52.7
2022-09-27T15:05:57.193Z,52.3
2022-09-27T15:11:15.444Z,52.9
2022-09-27T15:16:33.396Z,53.1
2022-09-27T15:21:51.568Z,53.6
2022-09-27T15:27:09.793Z,53.3
2022-09-27T15:32:27.979Z,52.9
